Time;durP1;ratioP1;P1;durP2;ratioP2;P2;SDS_P1;SDS_P2;PMS_P1;PMS_P2;Temp;Humidity;BMP_temperature;BMP_pressure;BME280_temperature;BME280_humidity;BME280_pressure;Samples;Min_cycle;Max_cycle;Signal;HPM_P1;HPM_P2
2022/06/09 00:00:45;;;;;;;1.42;1.30;;;12.70;99.90;;;;;;4983400;28;20649;-55
2022/06/09 00:03:26;;;;;;;2.35;1.30;;;12.70;99.90;;;;;;4985618;28;20562;-55
2022/06/09 00:05:53;;;;;;;2.33;1.77;;;12.70;99.90;;;;;;4983562;28;20051;-56
2022/06/09 00:08:20;;;;;;;2.72;1.50;;;12.70;99.90;;;;;;4982359;28;20041;-56
2022/06/09 00:10:54;;;;;;;2.08;1.52;;;12.70;99.90;;;;;;4984920;28;20861;-56
2022/06/09 00:13:21;;;;;;;2.05;1.33;;;12.60;99.90;;;;;;4984933;28;20041;-56
2022/06/09 00:15:48;;;;;;;2.50;1.30;;;12.60;99.90;;;;;;4984407;28;20217;-57
2022/06/09 00:18:16;;;;;;;2.50;1.80;;;12.60;99.90;;;;;;4981949;28;20574;-55
2022/06/09 00:20:43;;;;;;;3.92;1.80;;;12.60;99.90;;;;;;4985693;28;20037;-56
2022/06/09 00:23:13;;;;;;;2.05;1.33;;;12.60;99.90;;;;;;4984524;28;20230;-56
2022/06/09 00:25:40;;;;;;;4.55;1.50;;;12.60;99.90;;;;;;4984654;28;20842;-57
2022/06/09 00:28:08;;;;;;;1.73;1.17;;;12.60;99.90;;;;;;4980454;28;20033;-56
2022/06/09 00:30:34;;;;;;;3.17;1.70;;;12.60;99.90;;;;;;4984589;28;20090;-55
2022/06/09 00:33:02;;;;;;;1.45;1.35;;;12.60;99.90;;;;;;4982178;28;20052;-56
2022/06/09 00:35:29;;;;;;;3.20;1.85;;;12.60;99.90;;;;;;4982838;28;20885;-56
2022/06/09 00:37:56;;;;;;;3.08;1.45;;;12.60;99.90;;;;;;4983173;28;20045;-55
2022/06/09 00:40:24;;;;;;;3.78;1.73;;;12.60;99.90;;;;;;4964727;28;20060;-55
2022/06/09 00:42:50;;;;;;;2.55;1.52;;;12.50;99.90;;;;;;4982911;28;20350;-55
2022/06/09 00:45:28;;;;;;;5.47;1.90;;;12.50;99.90;;;;;;4984267;28;20045;-55
2022/06/09 00:48:17;;;;;;;6.93;2.28;;;12.50;99.90;;;;;;4983807;28;20578;-56
2022/06/09 00:50:44;;;;;;;2.33;2.00;;;12.50;99.90;;;;;;4984586;28;20041;-55
2022/06/09 00:53:17;;;;;;;5.55;2.53;;;12.50;99.90;;;;;;4985048;28;20041;-54
2022/06/09 00:55:44;;;;;;;4.68;1.92;;;12.50;99.90;;;;;;4982870;28;20673;-56
2022/06/09 00:58:21;;;;;;;2.10;1.67;;;12.50;99.90;;;;;;4983832;28;20041;-55
2022/06/09 01:00:52;;;;;;;5.60;2.50;;;12.50;99.90;;;;;;4982229;28;20037;-56
2022/06/09 01:03:23;;;;;;;2.63;2.05;;;12.50;99.90;;;;;;4987816;28;20610;-55
2022/06/09 01:05:55;;;;;;;3.00;2.17;;;12.50;99.90;;;;;;4987777;28;20600;-56
2022/06/09 01:08:29;;;;;;;2.13;1.90;;;12.50;99.90;;;;;;4987538;28;20138;-56
2022/06/09 01:10:57;;;;;;;6.72;2.67;;;12.50;99.90;;;;;;4988971;28;20045;-57
2022/06/09 01:13:24;;;;;;;3.22;1.80;;;12.50;99.90;;;;;;4985878;28;20364;-56
2022/06/09 01:16:23;;;;;;;1.90;1.75;;;12.50;99.90;;;;;;4984847;28;20037;-56
2022/06/09 01:19:09;;;;;;;7.85;2.85;;;12.50;99.90;;;;;;4967843;28;20180;-56
2022/06/09 01:22:27;;;;;;;4.85;2.70;;;12.50;99.90;;;;;;4969080;28;20048;-56
2022/06/09 01:25:14;;;;;;;5.60;2.67;;;12.50;99.90;;;;;;4934955;28;20064;-55
2022/06/09 01:28:16;;;;;;;6.60;2.83;;;12.50;99.90;;;;;;4968152;28;20048;-56
2022/06/09 01:31:04;;;;;;;1.42;1.23;;;12.60;99.90;;;;;;4968240;28;20444;-56
2022/06/09 01:33:38;;;;;;;8.70;0.77;;;12.50;99.90;;;;;;4968568;28;20574;-54
2022/06/09 01:36:14;;;;;;;2.95;0.70;;;12.40;99.90;;;;;;4968184;28;20053;-55
2022/06/09 01:38:51;;;;;;;1.03;0.80;;;12.20;99.90;;;;;;4983027;28;20171;-56
2022/06/09 01:41:20;;;;;;;;;;;12.00;99.90;;;;;;4969607;28;20578;-56
2022/06/09 01:43:47;;;;;;;;;;;11.90;99.90;;;;;;4968912;28;19931;-55
2022/06/09 01:46:21;;;;;;;;;;;11.80;99.90;;;;;;4981630;28;19978;-56
2022/06/09 01:48:51;;;;;;;0.95;0.60;;;11.70;99.90;;;;;;4966047;28;20210;-58
2022/06/09 01:51:21;;;;;;;17.10;1.38;;;11.70;99.90;;;;;;4966566;28;20041;-55
2022/06/09 01:54:01;;;;;;;4.38;0.90;;;11.60;99.90;;;;;;4967095;28;20293;-56
2022/06/09 01:56:28;;;;;;;1.85;1.15;;;11.60;99.90;;;;;;4967961;28;20057;-54
2022/06/09 01:59:10;;;;;;;1.33;1.08;;;11.60;99.90;;;;;;4971005;28;20570;-56
2022/06/09 02:01:45;;;;;;;2.63;1.85;;;11.60;99.90;;;;;;4971043;28;20049;-55
2022/06/09 02:04:25;;;;;;;2.17;1.17;;;11.60;99.90;;;;;;4972129;28;20049;-56
2022/06/09 02:06:52;;;;;;;5.82;1.15;;;11.60;99.90;;;;;;4992039;28;20041;-55
2022/06/09 02:09:25;;;;;;;2.83;1.40;;;11.60;99.90;;;;;;4986675;28;20578;-55
2022/06/09 02:11:56;;;;;;;6.65;1.67;;;11.70;99.90;;;;;;4988596;28;20063;-56
2022/06/09 02:14:27;;;;;;;3.83;1.30;;;11.70;99.90;;;;;;4986971;28;20048;-56
2022/06/09 02:16:55;;;;;;;2.47;1.42;;;11.70;99.90;;;;;;4985883;28;20052;-56
2022/06/09 02:19:23;;;;;;;1.88;1.27;;;11.70;99.90;;;;;;4987787;28;20044;-55
2022/06/09 02:21:50;;;;;;;2.17;1.65;;;11.70;99.90;;;;;;4991626;28;20041;-54
2022/06/09 02:24:17;;;;;;;2.05;1.13;;;11.70;99.90;;;;;;4986849;28;20480;-55
2022/06/09 02:26:44;;;;;;;1.60;1.50;;;11.80;99.90;;;;;;4989490;28;20397;-55
2022/06/09 02:29:11;;;;;;;3.17;1.25;;;11.80;99.90;;;;;;4991238;28;20566;-55
2022/06/09 02:31:38;;;;;;;2.03;1.23;;;11.80;99.90;;;;;;4984382;28;20206;-56
2022/06/09 02:34:05;;;;;;;1.65;1.13;;;11.70;99.90;;;;;;4988176;28;20540;-56
2022/06/09 02:36:32;;;;;;;1.52;0.90;;;11.70;99.90;;;;;;4987348;28;21041;-55
2022/06/09 02:38:59;;;;;;;1.52;0.73;;;11.70;99.90;;;;;;4986123;28;20400;-56
2022/06/09 02:41:26;;;;;;;1.58;0.90;;;11.70;99.90;;;;;;4982732;28;20210;-56
2022/06/09 02:43:53;;;;;;;1.92;0.80;;;11.60;99.90;;;;;;4966091;28;20570;-55
2022/06/09 02:46:20;;;;;;;1.08;1.00;;;11.60;99.90;;;;;;4967220;28;20041;-56
2022/06/09 02:48:47;;;;;;;1.85;1.30;;;11.60;99.90;;;;;;4968102;28;20144;-56
2022/06/09 02:51:35;;;;;;;0.90;0.70;;;11.60;99.90;;;;;;4968461;28;20037;-55
2022/06/09 02:54:08;;;;;;;2.33;0.93;;;11.60;99.90;;;;;;4968127;28;20585;-55
2022/06/09 02:56:36;;;;;;;3.35;0.95;;;11.60;99.90;;;;;;4968503;28;20543;-55
2022/06/09 02:59:03;;;;;;;5.35;1.50;;;11.60;99.90;;;;;;4967840;28;20444;-56
2022/06/09 03:01:30;;;;;;;11.20;1.90;;;11.60;99.90;;;;;;4979776;28;20041;-56
2022/06/09 03:03:57;;;;;;;1.77;1.00;;;11.60;99.90;;;;;;4985425;28;20055;-55
2022/06/09 03:06:25;;;;;;;6.60;1.30;;;11.60;99.90;;;;;;4989219;28;20049;-55
2022/06/09 03:08:52;;;;;;;3.45;0.77;;;11.50;99.90;;;;;;4987883;28;20037;-54
2022/06/09 03:11:19;;;;;;;5.03;1.05;;;11.50;99.90;;;;;;4990761;28;20372;-56
2022/06/09 03:13:46;;;;;;;2.25;0.90;;;11.50;99.90;;;;;;4990353;28;20288;-55
2022/06/09 03:16:15;;;;;;;3.28;1.27;;;11.40;99.90;;;;;;4987063;28;20048;-56
2022/06/09 03:18:44;;;;;;;2.30;1.30;;;11.40;99.90;;;;;;4990714;28;20119;-56
2022/06/09 03:21:12;;;;;;;2.75;1.35;;;11.40;99.90;;;;;;4987726;28;20056;-54
2022/06/09 03:23:39;;;;;;;6.50;1.60;;;11.30;99.90;;;;;;4987474;28;20045;-54
2022/06/09 03:26:07;;;;;;;5.78;1.90;;;11.40;99.90;;;;;;4987092;28;20049;-54
2022/06/09 03:28:35;;;;;;;3.33;2.13;;;11.40;99.90;;;;;;4986040;28;20896;-55
2022/06/09 03:31:02;;;;;;;5.82;2.70;;;11.40;99.90;;;;;;4988769;28;20144;-55
2022/06/09 03:33:29;;;;;;;6.60;2.15;;;11.40;99.90;;;;;;4981209;28;20033;-55
2022/06/09 03:35:56;;;;;;;2.85;2.20;;;11.40;99.90;;;;;;4986112;28;20364;-55
2022/06/09 03:38:23;;;;;;;4.10;2.30;;;11.50;99.90;;;;;;4984470;28;20596;-54
2022/06/09 03:40:50;;;;;;;3.72;2.20;;;11.50;99.90;;;;;;4965441;28;20100;-55
2022/06/09 03:43:17;;;;;;;;;;;11.50;99.90;;;;;;4964066;28;20056;-54
2022/06/09 03:45:44;;;;;;;6.10;2.63;;;11.40;99.90;;;;;;4966005;28;20279;-55
2022/06/09 03:48:11;;;;;;;3.63;2.50;;;11.40;99.90;;;;;;4965075;28;20038;-55
2022/06/09 03:50:38;;;;;;;3.58;2.28;;;11.50;99.90;;;;;;4966824;28;20190;-55
2022/06/09 03:53:05;;;;;;;;;;;11.50;99.90;;;;;;4965191;28;20171;-54
2022/06/09 03:55:33;;;;;;;5.03;2.28;;;11.50;99.90;;;;;;4967072;28;20034;-55
2022/06/09 03:58:00;;;;;;;;;;;11.40;99.90;;;;;;4966258;28;20198;-55
2022/06/09 04:00:29;;;;;;;4.23;2.07;;;11.40;99.90;;;;;;4967417;28;20148;-56
2022/06/09 04:02:56;;;;;;;2.92;2.10;;;11.50;99.90;;;;;;4968754;28;20196;-56
2022/06/09 04:05:24;;;;;;;6.53;2.25;;;11.50;99.90;;;;;;4971225;28;20033;-55
2022/06/09 04:07:51;;;;;;;6.88;2.10;;;11.40;99.90;;;;;;4986437;28;20037;-55
2022/06/09 04:10:22;;;;;;;5.68;2.30;;;11.40;99.90;;;;;;4986285;28;20041;-56
2022/06/09 04:12:49;;;;;;;3.85;2.08;;;11.40;99.90;;;;;;4982908;28;20056;-56
2022/06/09 04:15:17;;;;;;;4.35;2.00;;;11.40;99.90;;;;;;4985554;28;20032;-55
2022/06/09 04:17:45;;;;;;;10.23;2.53;;;11.40;99.90;;;;;;4983556;28;20540;-56
2022/06/09 04:20:15;;;;;;;5.80;1.95;;;11.30;99.90;;;;;;4986825;28;20041;-58
2022/06/09 04:22:42;;;;;;;10.07;2.03;;;11.40;99.90;;;;;;4984640;28;20041;-54
2022/06/09 04:25:15;;;;;;;2.83;1.67;;;11.40;99.90;;;;;;4986478;28;20041;-55
2022/06/09 04:27:42;;;;;;;2.85;1.90;;;11.40;99.90;;;;;;4981918;28;20040;-54
2022/06/09 04:30:10;;;;;;;7.60;2.30;;;11.30;99.90;;;;;;4986063;28;20083;-55
2022/06/09 04:32:37;;;;;;;4.95;2.00;;;11.30;99.90;;;;;;4985103;28;20040;-54
2022/06/09 04:35:04;;;;;;;3.22;1.75;;;11.30;99.90;;;;;;4985177;28;20885;-53
2022/06/09 04:40:17;;;;;;;2.90;1.80;;;11.30;99.90;;;;;;4984693;28;20130;-56
2022/06/09 04:42:44;;;;;;;3.85;2.05;;;11.40;99.90;;;;;;4977440;28;20371;-55
2022/06/09 04:45:11;;;;;;;6.05;2.15;;;11.30;99.90;;;;;;4964624;28;20140;-53
2022/06/09 04:47:37;;;;;;;;;;;11.30;99.90;;;;;;4964271;28;20575;-52
2022/06/09 04:50:05;;;;;;;4.53;2.30;;;11.40;99.90;;;;;;4968290;28;19921;-52
2022/06/09 04:52:32;;;;;;;4.07;1.98;;;11.40;99.90;;;;;;4963981;28;20337;-53
2022/06/09 04:54:59;;;;;;;3.58;2.20;;;11.40;99.90;;;;;;4965910;28;20147;-53
2022/06/09 04:57:26;;;;;;;5.97;2.45;;;11.40;99.90;;;;;;4963508;28;20092;-52
2022/06/09 04:59:54;;;;;;;5.40;2.28;;;11.40;99.90;;;;;;4964615;28;20041;-52
2022/06/09 05:02:20;;;;;;;6.60;2.75;;;11.40;99.90;;;;;;4966862;28;20313;-52
2022/06/09 05:04:47;;;;;;;4.43;2.30;;;11.40;99.90;;;;;;4970127;28;20037;-55
2022/06/09 05:07:14;;;;;;;2.88;1.70;;;11.40;99.90;;;;;;4982145;28;20139;-54
2022/06/09 05:09:41;;;;;;;5.70;2.22;;;11.40;99.90;;;;;;4998225;28;20056;-54
2022/06/09 05:12:09;;;;;;;5.28;2.53;;;11.40;99.90;;;;;;4985166;28;20885;-53
2022/06/09 05:14:36;;;;;;;5.88;2.17;;;11.40;99.90;;;;;;4974776;28;20042;-54
2022/06/09 05:17:03;;;;;;;6.97;2.20;;;11.40;99.90;;;;;;4980685;28;20041;-53
2022/06/09 05:19:30;;;;;;;4.43;2.05;;;11.40;99.90;;;;;;4984521;28;20585;-51
2022/06/09 05:21:57;;;;;;;10.63;2.83;;;11.40;99.90;;;;;;4985504;28;20041;-52
2022/06/09 05:24:24;;;;;;;4.43;2.33;;;11.40;99.90;;;;;;4986599;28;20083;-53
2022/06/09 05:26:52;;;;;;;9.60;2.50;;;11.40;99.90;;;;;;4981578;28;20044;-53
2022/06/09 05:29:19;;;;;;;5.90;2.30;;;11.50;99.90;;;;;;4984137;28;20510;-53
2022/06/09 05:31:46;;;;;;;6.43;1.90;;;11.50;99.90;;;;;;4986210;28;20056;-54
2022/06/09 05:34:13;;;;;;;7.65;2.30;;;11.50;99.90;;;;;;4985141;28;20305;-52
2022/06/09 05:36:40;;;;;;;5.35;2.10;;;11.50;99.90;;;;;;4985906;28;20562;-53
2022/06/09 05:44:51;;;;;;;4.38;1.42;;;11.50;99.90;;;;;;4983032;28;20060;-55
2022/06/09 05:47:20;;;;;;;3.50;1.33;;;11.50;99.90;;;;;;4983141;28;20056;-54
2022/06/09 05:49:53;;;;;;;6.88;1.05;;;11.40;99.90;;;;;;4987623;28;20052;-59
2022/06/09 05:52:28;;;;;;;2.28;1.00;;;11.30;99.90;;;;;;4986997;28;20526;-53
2022/06/09 05:54:55;;;;;;;3.95;0.90;;;11.20;99.90;;;;;;4989801;28;20581;-54
2022/06/09 05:57:25;;;;;;;2.08;1.00;;;11.10;99.90;;;;;;4987775;28;20037;-54
2022/06/09 05:59:52;;;;;;;3.85;0.80;;;11.10;99.90;;;;;;4989336;28;20205;-54
2022/06/09 06:02:22;;;;;;;1.35;0.90;;;11.00;99.90;;;;;;4987814;28;20527;-54
2022/06/09 06:04:50;;;;;;;1.73;1.10;;;10.90;99.90;;;;;;4989353;28;20045;-54
2022/06/09 06:07:17;;;;;;;2.88;1.52;;;10.80;99.90;;;;;;4989945;28;20044;-53
2022/06/09 06:09:44;;;;;;;3.03;1.13;;;10.80;99.90;;;;;;4989690;28;20186;-55
2022/06/09 06:12:11;;;;;;;;;;;10.90;99.90;;;;;;4989809;28;20033;-54
2022/06/09 06:14:38;;;;;;;1.98;0.95;;;10.90;99.90;;;;;;4989482;28;19924;-56
2022/06/09 06:17:06;;;;;;;3.15;0.90;;;11.00;99.90;;;;;;4987026;28;20585;-52
2022/06/09 06:19:33;;;;;;;2.60;1.42;;;11.00;99.90;;;;;;4989206;28;20535;-56
2022/06/09 06:22:07;;;;;;;2.00;0.73;;;11.00;99.90;;;;;;4989278;28;20577;-53
2022/06/09 06:24:34;;;;;;;2.60;1.00;;;11.10;99.90;;;;;;4988826;28;20044;-54
2022/06/09 06:27:01;;;;;;;2.47;1.15;;;11.20;99.90;;;;;;4987382;28;20091;-53
2022/06/09 06:29:29;;;;;;;2.47;1.30;;;11.30;99.90;;;;;;4988253;28;20049;-54
2022/06/09 06:31:56;;;;;;;3.03;1.10;;;11.30;99.90;;;;;;4985047;28;20037;-52
2022/06/09 06:34:24;;;;;;;1.42;1.00;;;11.40;99.90;;;;;;4987960;28;20223;-55
2022/06/09 06:36:51;;;;;;;2.00;1.60;;;11.50;99.90;;;;;;4987810;28;20641;-50
2022/06/09 06:39:17;;;;;;;1.90;0.77;;;11.50;99.90;;;;;;4985020;28;20788;-52
2022/06/09 06:41:44;;;;;;;1.60;0.90;;;11.60;99.90;;;;;;4986783;28;20348;-48
2022/06/09 06:44:12;;;;;;;5.10;2.13;;;11.70;99.90;;;;;;4986655;28;20053;-55
2022/06/09 06:46:39;;;;;;;1.08;0.80;;;11.70;99.90;;;;;;4973157;28;20736;-54
2022/06/09 06:49:07;;;;;;;1.30;0.80;;;11.70;99.90;;;;;;4967806;28;20198;-55
2022/06/09 06:51:36;;;;;;;2.00;0.65;;;11.70;99.90;;;;;;4978113;28;20083;-54
2022/06/09 06:54:05;;;;;;;1.42;0.80;;;11.70;99.90;;;;;;4986185;28;20037;-56
2022/06/09 06:56:34;;;;;;;1.63;0.55;;;11.80;99.90;;;;;;4986922;28;20045;-55
2022/06/09 06:59:02;;;;;;;1.25;0.70;;;11.80;99.90;;;;;;4987470;28;20040;-56
2022/06/09 07:01:29;;;;;;;1.10;0.93;;;11.80;99.90;;;;;;4987310;28;20255;-55
2022/06/09 07:03:57;;;;;;;3.67;0.75;;;11.80;99.90;;;;;;4987899;28;20045;-61
2022/06/09 07:06:25;;;;;;;2.67;0.80;;;11.80;99.90;;;;;;4986840;28;20180;-62
2022/06/09 07:08:52;;;;;;;0.70;0.70;;;11.80;99.90;;;;;;4986518;28;20064;-58
2022/06/09 07:11:19;;;;;;;1.17;0.50;;;11.80;99.90;;;;;;4987790;28;20116;-54
2022/06/09 07:13:46;;;;;;;1.45;0.80;;;11.80;99.90;;;;;;4987705;28;20123;-54
2022/06/09 07:16:13;;;;;;;0.98;0.55;;;11.80;99.90;;;;;;4984663;28;20325;-56
2022/06/09 07:19:00;;;;;;;0.77;0.70;;;11.80;99.90;;;;;;4985318;28;20102;-53
2022/06/09 07:21:27;;;;;;;;;;;11.90;99.90;;;;;;4987719;28;20436;-51
2022/06/09 07:23:53;;;;;;;4.20;0.95;;;11.90;99.90;;;;;;4985587;28;19920;-51
2022/06/09 07:26:20;;;;;;;;;;;12.00;99.90;;;;;;4988318;28;20041;-51
2022/06/09 07:28:47;;;;;;;1.58;0.70;;;12.10;99.90;;;;;;4983904;28;19986;-50
2022/06/09 07:31:15;;;;;;;3.47;1.17;;;12.20;99.90;;;;;;4987562;28;20907;-51
2022/06/09 07:33:42;;;;;;;4.63;1.10;;;12.30;99.90;;;;;;4987413;28;20047;-51
2022/06/09 07:36:16;;;;;;;1.40;0.73;;;12.40;99.90;;;;;;4987239;28;20824;-51
2022/06/09 07:38:43;;;;;;;6.13;0.88;;;12.50;99.90;;;;;;4983036;28;20352;-51
2022/06/09 07:41:10;;;;;;;4.05;1.02;;;12.50;99.90;;;;;;4985880;28;20197;-56
2022/06/09 07:43:55;;;;;;;3.05;1.42;;;12.60;99.90;;;;;;4988425;28;20041;-57
2022/06/09 07:46:22;;;;;;;1.88;0.95;;;12.70;99.90;;;;;;4980529;28;20030;-55
2022/06/09 07:48:51;;;;;;;11.27;2.00;;;12.90;99.90;;;;;;4981973;28;20068;-57
2022/06/09 07:51:18;;;;;;;7.10;1.25;;;13.10;99.90;;;;;;4983779;28;20667;-53
2022/06/09 07:53:46;;;;;;;6.72;1.38;;;13.30;99.90;;;;;;4967812;28;20147;-53
2022/06/09 07:56:13;;;;;;;7.03;1.48;;;13.40;99.90;;;;;;4983788;28;20597;-53
2022/06/09 07:58:41;;;;;;;5.13;1.50;;;13.60;99.90;;;;;;4988110;28;20605;-54
2022/06/09 08:01:08;;;;;;;3.05;1.30;;;13.80;99.90;;;;;;4988129;28;20109;-54
2022/06/09 08:03:36;;;;;;;8.00;1.60;;;13.90;99.90;;;;;;4986298;28;20419;-51
2022/06/09 08:06:03;;;;;;;3.63;1.33;;;13.90;99.90;;;;;;4983270;28;20226;-51
2022/06/09 08:08:51;;;;;;;9.23;1.73;;;14.00;99.90;;;;;;4984075;28;20429;-57
2022/06/09 08:11:19;;;;;;;2.15;1.02;;;14.00;99.90;;;;;;4987412;28;20275;-54
2022/06/09 08:13:46;;;;;;;4.85;1.23;;;14.10;99.90;;;;;;4990405;28;20141;-53
2022/06/09 08:16:14;;;;;;;3.53;1.00;;;14.20;99.90;;;;;;4986801;28;20144;-59
2022/06/09 08:18:41;;;;;;;6.07;1.40;;;14.30;99.90;;;;;;4982632;28;20033;-55
2022/06/09 08:21:08;;;;;;;3.22;1.00;;;14.40;99.90;;;;;;4985006;28;20045;-52
2022/06/09 08:23:52;;;;;;;9.27;1.17;;;14.60;99.90;;;;;;4983763;28;20091;-54
2022/06/09 08:26:19;;;;;;;5.93;1.15;;;14.80;99.90;;;;;;4986435;28;20045;-53
2022/06/09 08:28:47;;;;;;;5.05;1.00;;;14.90;99.90;;;;;;4984913;28;20798;-53
2022/06/09 08:31:14;;;;;;;5.35;1.30;;;15.00;99.90;;;;;;4983711;28;20321;-54
2022/06/09 08:33:41;;;;;;;6.68;1.42;;;15.20;99.90;;;;;;4988423;28;20045;-56
2022/06/09 08:36:08;;;;;;;6.28;1.20;;;15.30;99.90;;;;;;4983799;28;20197;-54
2022/06/09 08:38:36;;;;;;;2.78;1.02;;;15.50;99.90;;;;;;4983580;28;20060;-53
2022/06/09 08:41:33;;;;;;;2.88;0.98;;;15.60;99.90;;;;;;4984709;28;20044;-53
2022/06/09 08:44:36;;;;;;;7.43;1.10;;;15.80;99.90;;;;;;4984653;28;20387;-55
2022/06/09 08:47:29;;;;;;;3.13;1.15;;;15.90;99.90;;;;;;4934630;28;20826;-53
2022/06/09 08:50:05;;;;;;;8.00;1.20;;;15.90;99.90;;;;;;4981570;28;20215;-58
2022/06/09 08:52:35;;;;;;;6.03;1.05;;;15.90;99.90;;;;;;4982981;28;20041;-66
2022/06/09 08:55:28;;;;;;;2.63;1.40;;;15.80;99.90;;;;;;4985975;28;20098;-62
2022/06/09 08:58:04;;;;;;;2.42;0.90;;;15.90;99.90;;;;;;4985396;28;20292;-55
2022/06/09 09:00:38;;;;;;;5.80;1.05;;;16.10;99.90;;;;;;4986954;28;20939;-54
2022/06/09 09:03:27;;;;;;;6.55;1.83;;;16.30;99.90;;;;;;4983996;28;20044;-53
2022/06/09 09:05:58;;;;;;;5.22;1.10;;;16.40;99.90;;;;;;4984758;28;20052;-53
2022/06/09 09:08:26;;;;;;;5.28;1.25;;;16.30;99.90;;;;;;4981844;28;20049;-53
2022/06/09 09:11:11;;;;;;;5.93;1.00;;;16.20;99.90;;;;;;4982399;28;20045;-53
2022/06/09 09:13:53;;;;;;;1.77;1.13;;;16.20;99.90;;;;;;4982085;28;20052;-53
2022/06/09 09:16:28;;;;;;;6.00;1.63;;;16.10;99.90;;;;;;4983620;28;20045;-53
2022/06/09 09:19:15;;;;;;;6.32;1.25;;;16.20;99.90;;;;;;4985377;28;20095;-55
2022/06/09 09:22:04;;;;;;;3.97;1.08;;;16.20;99.90;;;;;;4985352;28;20045;-53
2022/06/09 09:25:02;;;;;;;3.90;1.00;;;16.40;99.90;;;;;;4985046;28;20053;-53
2022/06/09 09:27:44;;;;;;;5.60;1.20;;;16.40;99.90;;;;;;4983950;28;20076;-55
2022/06/09 09:30:19;;;;;;;9.07;1.40;;;16.50;99.90;;;;;;4987386;28;20835;-55
2022/06/09 09:32:50;;;;;;;5.28;1.50;;;16.80;99.90;;;;;;4985666;28;20048;-56
2022/06/09 09:35:26;;;;;;;3.88;0.90;;;17.00;99.90;;;;;;4989882;28;20048;-53
2022/06/09 09:37:56;;;;;;;5.90;0.60;;;16.90;99.90;;;;;;4987364;28;20356;-54
2022/06/09 09:40:26;;;;;;;3.60;1.00;;;16.60;99.90;;;;;;4969352;28;20432;-59
2022/06/09 09:42:56;;;;;;;4.13;0.73;;;16.00;99.90;;;;;;4986279;28;20037;-63
2022/06/09 09:45:31;;;;;;;2.47;1.20;;;15.50;99.90;;;;;;4988340;28;20720;-54
2022/06/09 09:48:01;;;;;;;1.95;0.60;;;15.00;99.90;;;;;;4983064;28;20878;-54
2022/06/09 09:50:46;;;;;;;1.95;0.88;;;14.70;99.90;;;;;;4982109;28;20056;-54
2022/06/09 09:53:19;;;;;;;2.53;1.00;;;14.40;99.90;;;;;;4989334;28;20429;-54
2022/06/09 09:55:54;;;;;;;3.15;1.00;;;14.30;99.90;;;;;;4987493;28;20045;-56
2022/06/09 09:58:23;;;;;;;1.50;0.88;;;14.60;99.90;;;;;;4989159;28;20037;-55
2022/06/09 10:00:55;;;;;;;4.35;1.25;;;14.90;99.90;;;;;;4988851;28;20596;-54
2022/06/09 10:10:19;;;;;;;4.25;0.93;;;16.50;99.90;;;;;;4984930;28;20054;-55
2022/06/09 10:12:46;;;;;;;6.47;1.20;;;16.70;99.90;;;;;;4988814;28;20052;-55
2022/06/09 10:15:31;;;;;;;3.30;1.30;;;16.80;99.90;;;;;;4987269;28;20029;-54
2022/06/09 10:17:58;;;;;;;3.25;1.02;;;16.60;99.90;;;;;;4986690;28;20910;-55
2022/06/09 10:20:48;;;;;;;3.22;1.40;;;16.30;99.90;;;;;;4988838;28;20382;-55
2022/06/09 10:23:33;;;;;;;3.92;1.15;;;16.10;99.90;;;;;;4986188;28;20099;-54
2022/06/09 10:26:16;;;;;;;3.28;1.23;;;15.90;99.90;;;;;;4988216;28;20045;-55
2022/06/09 10:28:54;;;;;;;2.40;1.00;;;15.70;99.90;;;;;;4987435;28;20052;-55
2022/06/09 10:31:53;;;;;;;2.55;1.05;;;15.60;99.90;;;;;;4985957;28;20048;-55
2022/06/09 10:34:19;;;;;;;1.67;1.00;;;15.20;99.90;;;;;;4986070;28;20849;-55
2022/06/09 10:37:00;;;;;;;;;;;15.00;99.90;;;;;;4988263;28;20033;-54
2022/06/09 10:39:41;;;;;;;3.00;0.82;;;14.80;99.90;;;;;;4975089;28;20675;-54
2022/06/09 10:42:33;;;;;;;6.35;0.80;;;14.60;99.90;;;;;;4980324;28;20974;-54
2022/06/09 10:45:15;;;;;;;2.05;0.93;;;14.30;99.90;;;;;;4986220;28;20037;-54
2022/06/09 10:57:37;;;;;;;6.97;1.20;;;13.80;99.90;;;;;;4965300;28;20102;-68
2022/06/09 11:00:15;;;;;;;2.33;0.80;;;13.80;99.90;;;;;;4886121;28;20043;-64
2022/06/09 11:02:56;;;;;;;2.33;0.80;;;13.80;99.90;;;;;;4958319;28;20988;-64
2022/06/09 11:05:45;;;;;;;2.97;0.80;;;13.90;99.90;;;;;;4975884;28;20052;-54
2022/06/09 11:08:24;;;;;;;1.42;0.80;;;14.00;99.90;;;;;;4986878;28;20592;-54
2022/06/09 11:11:05;;;;;;;1.27;0.75;;;14.00;99.90;;;;;;4988370;28;20045;-56
2022/06/09 11:13:52;;;;;;;2.95;1.02;;;14.30;99.90;;;;;;4988441;28;20049;-55
2022/06/09 11:16:42;;;;;;;3.00;1.17;;;14.50;99.90;;;;;;4987513;28;20562;-56
2022/06/09 11:19:12;;;;;;;2.65;0.80;;;14.70;99.90;;;;;;4984273;28;20113;-55
2022/06/09 11:21:52;;;;;;;3.05;0.90;;;14.80;99.90;;;;;;4988065;28;20618;-55
2022/06/09 11:24:31;;;;;;;4.43;1.08;;;14.90;99.90;;;;;;4986084;28;20052;-55
2022/06/09 11:27:17;;;;;;;3.33;0.77;;;15.30;99.90;;;;;;4991337;28;20602;-54
2022/06/09 11:29:54;;;;;;;8.10;1.50;;;15.60;99.90;;;;;;4986399;28;20589;-54
2022/06/09 11:32:31;;;;;;;4.55;1.45;;;16.00;99.90;;;;;;4984599;28;20124;-55
2022/06/09 11:35:22;;;;;;;4.15;1.27;;;16.30;99.90;;;;;;4988067;28;20041;-56
2022/06/09 11:37:58;;;;;;;4.72;1.00;;;16.50;99.90;;;;;;4982044;28;20271;-57
2022/06/09 11:40:52;;;;;;;4.32;1.33;;;16.70;99.90;;;;;;4988125;28;20052;-56
2022/06/09 11:43:41;;;;;;;2.80;1.20;;;17.00;99.90;;;;;;4971165;28;20262;-55
2022/06/09 11:46:33;;;;;;;2.05;1.23;;;17.20;99.90;;;;;;4969152;28;20128;-55
2022/06/09 11:49:04;;;;;;;3.60;1.10;;;17.40;99.90;;;;;;4962090;28;20156;-66
2022/06/09 11:51:33;;;;;;;9.25;2.08;;;17.50;99.90;;;;;;4980095;28;20034;-60
2022/06/09 11:54:04;;;;;;;4.20;1.85;;;17.30;99.90;;;;;;4970176;28;20041;-56
2022/06/09 11:56:40;;;;;;;8.48;2.28;;;17.20;99.90;;;;;;4986355;28;20804;-56
2022/06/09 11:59:17;;;;;;;6.38;1.85;;;16.70;99.90;;;;;;4971193;28;20135;-56
2022/06/09 12:02:06;;;;;;;4.68;1.52;;;15.90;99.90;;;;;;4971292;28;20211;-56
2022/06/09 12:04:58;;;;;;;3.90;1.00;;;15.20;99.90;;;;;;4988208;28;20744;-56
2022/06/09 12:08:12;;;;;;;3.65;1.20;;;14.40;99.90;;;;;;4989329;28;20041;-56
2022/06/09 12:11:01;;;;;;;6.07;1.35;;;13.80;99.90;;;;;;4936305;28;20268;-59
2022/06/09 12:13:53;;;;;;;4.88;1.20;;;13.40;99.90;;;;;;4985537;28;20044;-52
2022/06/09 12:16:28;;;;;;;4.40;1.08;;;13.10;99.90;;;;;;4987544;28;20349;-54
2022/06/09 12:19:05;;;;;;;8.27;1.77;;;12.80;99.90;;;;;;4986237;28;20472;-53
2022/06/09 12:21:36;;;;;;;2.90;1.25;;;12.70;99.90;;;;;;4987433;28;20538;-51
2022/06/09 12:24:33;;;;;;;5.93;1.85;;;12.50;99.90;;;;;;4987128;28;20049;-52
2022/06/09 12:27:34;;;;;;;6.80;1.63;;;12.40;99.90;;;;;;4987493;28;20151;-53
2022/06/09 12:30:02;;;;;;;4.03;1.60;;;12.40;99.90;;;;;;4986164;28;20522;-52
2022/06/09 12:32:28;;;;;;;5.60;2.25;;;12.40;99.90;;;;;;4987419;28;20140;-53
2022/06/09 12:34:57;;;;;;;;;;;12.40;99.90;;;;;;4990915;28;20217;-53
2022/06/09 12:37:33;;;;;;;4.78;1.55;;;12.40;99.90;;;;;;4988932;28;19958;-54
2022/06/09 12:40:15;;;;;;;6.77;1.60;;;12.50;99.90;;;;;;4983581;28;20440;-56
2022/06/09 12:42:45;;;;;;;9.20;1.85;;;12.50;99.90;;;;;;4986279;28;20265;-54
2022/06/09 12:45:17;;;;;;;8.75;1.85;;;12.60;99.90;;;;;;4990210;28;20045;-56
2022/06/09 12:48:13;;;;;;;2.60;1.02;;;12.70;99.90;;;;;;4988805;28;20138;-53
2022/06/09 12:50:51;;;;;;;3.80;1.60;;;12.80;99.90;;;;;;4986183;28;20041;-53
2022/06/09 12:53:29;;;;;;;11.30;1.73;;;13.00;99.90;;;;;;4987266;28;20041;-52
2022/06/09 12:56:01;;;;;;;3.97;1.40;;;13.20;99.90;;;;;;4984686;28;20409;-53
2022/06/09 12:58:34;;;;;;;5.47;1.35;;;13.20;99.90;;;;;;4989180;28;20044;-53
2022/06/09 13:01:04;;;;;;;5.90;1.15;;;13.30;99.90;;;;;;4991936;28;20037;-55
2022/06/09 13:03:39;;;;;;;2.38;0.98;;;13.40;99.90;;;;;;4993508;28;20546;-55
2022/06/09 13:06:28;;;;;;;5.00;1.17;;;13.50;99.90;;;;;;4990327;28;20566;-53
2022/06/09 13:09:16;;;;;;;2.25;1.05;;;13.70;99.90;;;;;;4994615;28;20148;-54
2022/06/09 13:14:39;;;;;;;6.75;1.65;;;13.90;99.90;;;;;;4992246;28;20033;-51
2022/06/09 13:17:12;;;;;;;2.17;1.30;;;13.90;99.90;;;;;;4988092;28;20041;-57
2022/06/09 13:19:40;;;;;;;4.60;2.38;;;14.10;99.90;;;;;;4991753;28;20044;-54
2022/06/09 13:22:14;;;;;;;2.30;1.50;;;14.10;99.90;;;;;;4992733;28;20041;-52
2022/06/09 13:24:42;;;;;;;3.10;1.33;;;14.10;99.90;;;;;;4992843;28;20589;-53
2022/06/09 13:27:16;;;;;;;4.38;1.55;;;14.10;99.90;;;;;;4987932;28;20045;-55
2022/06/09 13:30:02;;;;;;;6.80;1.85;;;14.00;99.90;;;;;;4992133;28;20033;-51
2022/06/09 13:32:43;;;;;;;3.20;1.27;;;13.80;99.90;;;;;;4991787;28;20029;-51
2022/06/09 13:35:41;;;;;;;3.45;1.42;;;13.60;99.90;;;;;;4994332;28;20217;-52
2022/06/09 13:38:25;;;;;;;4.57;1.65;;;13.40;99.90;;;;;;5002372;28;20048;-53
2022/06/09 13:40:55;;;;;;;3.47;1.33;;;13.20;99.90;;;;;;5003241;28;20052;-52
2022/06/09 13:43:26;;;;;;;5.22;1.90;;;13.00;99.90;;;;;;5002606;28;20063;-51
2022/06/09 13:46:22;;;;;;;3.95;1.08;;;12.80;99.90;;;;;;4999599;28;20056;-51
2022/06/09 13:49:05;;;;;;;2.55;1.23;;;12.70;99.90;;;;;;4987943;28;20260;-50